createdAt,value
2018-03-28T00:01:26.134Z,19.43
2018-03-28T00:03:54.609Z,19.27
2018-03-28T00:06:23.139Z,19.90
2018-03-28T00:08:51.670Z,19.93
2018-03-28T00:11:20.123Z,19.20
2018-03-28T00:13:48.618Z,18.70
2018-03-28T00:16:17.125Z,18.80
2018-03-28T00:18:45.583Z,19.33
2018-03-28T00:21:14.038Z,18.13
2018-03-28T00:23:42.542Z,18.63
2018-03-28T00:26:11.000Z,18.70
2018-03-28T00:28:39.481Z,17.63
2018-03-28T00:31:07.979Z,18.03
2018-03-28T00:33:36.474Z,17.70
2018-03-28T00:36:04.981Z,17.33
2018-03-28T00:38:33.443Z,17.97
2018-03-28T00:41:01.954Z,16.57
2018-03-28T00:43:30.463Z,16.53
2018-03-28T00:45:59.858Z,16.57
2018-03-28T00:48:28.350Z,16.83
2018-03-28T00:50:56.888Z,17.40
2018-03-28T00:53:25.421Z,18.00
2018-03-28T00:55:53.898Z,15.73
2018-03-28T00:58:22.394Z,16.43
2018-03-28T01:00:50.861Z,16.37
2018-03-28T01:03:19.398Z,16.60
2018-03-28T01:05:47.869Z,16.73
2018-03-28T01:08:16.365Z,17.37
2018-03-28T01:10:44.876Z,17.97
2018-03-28T01:13:13.338Z,17.20
2018-03-28T01:15:41.848Z,17.33
2018-03-28T01:18:10.342Z,18.00
2018-03-28T01:20:38.907Z,17.30
2018-03-28T01:23:07.423Z,17.90
2018-03-28T01:25:35.932Z,17.33
2018-03-28T01:28:04.410Z,17.13
2018-03-28T01:30:32.918Z,16.93
2018-03-28T01:33:01.385Z,17.43
2018-03-28T01:35:29.850Z,18.30
2018-03-28T01:37:58.342Z,19.53
2018-03-28T01:40:26.857Z,18.13
2018-03-28T01:42:55.350Z,18.07
2018-03-28T01:45:23.810Z,18.33
2018-03-28T01:47:52.310Z,18.37
2018-03-28T01:50:20.827Z,19.60
2018-03-28T01:52:49.301Z,18.30
2018-03-28T01:55:17.802Z,19.33
2018-03-28T01:57:46.295Z,18.40
2018-03-28T02:00:14.793Z,19.47
2018-03-28T02:02:43.305Z,19.03
2018-03-28T02:05:11.797Z,19.17
2018-03-28T02:07:40.285Z,17.87
2018-03-28T02:10:08.784Z,17.13
2018-03-28T02:12:37.266Z,17.47
2018-03-28T02:15:05.774Z,18.33
2018-03-28T02:17:34.289Z,17.80
2018-03-28T02:20:02.803Z,16.80
2018-03-28T02:22:31.302Z,17.17
2018-03-28T02:24:59.793Z,17.07
2018-03-28T02:27:28.290Z,16.10
2018-03-28T02:29:56.749Z,16.47
2018-03-28T02:32:25.258Z,16.63
2018-03-28T02:34:53.730Z,17.60
2018-03-28T02:37:22.223Z,16.93
2018-03-28T02:39:50.710Z,16.83
2018-03-28T02:42:19.211Z,16.90
2018-03-28T02:44:47.711Z,18.23
2018-03-28T02:47:16.618Z,17.97
2018-03-28T02:49:45.125Z,17.83
2018-03-28T02:52:13.635Z,17.73
2018-03-28T02:54:42.110Z,18.87
2018-03-28T02:57:10.609Z,20.07
2018-03-28T02:59:39.106Z,19.47
2018-03-28T03:02:07.606Z,18.70
2018-03-28T03:04:36.113Z,19.27
2018-03-28T03:07:04.634Z,18.87
2018-03-28T03:09:33.133Z,17.77
2018-03-28T03:12:01.621Z,18.23
2018-03-28T03:14:30.114Z,18.77
2018-03-28T03:16:58.579Z,20.30
2018-03-28T03:19:27.081Z,21.27
2018-03-28T03:21:55.552Z,19.93
2018-03-28T03:24:24.010Z,20.30
2018-03-28T03:26:52.518Z,20.67
2018-03-28T03:29:21.009Z,20.40
2018-03-28T03:31:49.473Z,21.73
2018-03-28T03:34:17.930Z,21.17
2018-03-28T03:36:46.472Z,20.83
2018-03-28T03:39:14.942Z,19.50
2018-03-28T03:41:43.416Z,21.40
2018-03-28T03:44:11.906Z,24.87
2018-03-28T03:46:40.374Z,24.33
2018-03-28T03:49:08.913Z,26.10
2018-03-28T03:51:37.369Z,25.13
2018-03-28T03:54:05.864Z,23.37
2018-03-28T03:56:34.325Z,23.17
2018-03-28T03:59:02.832Z,21.30
2018-03-28T04:01:31.348Z,22.37
2018-03-28T04:03:59.846Z,21.50
2018-03-28T04:06:28.325Z,18.87
2018-03-28T04:08:56.818Z,20.77
2018-03-28T04:11:25.285Z,19.70
2018-03-28T04:13:53.748Z,22.00
2018-03-28T04:16:22.249Z,22.00
2018-03-28T04:18:50.758Z,20.57
2018-03-28T04:21:19.218Z,22.20
2018-03-28T04:23:47.696Z,20.77
2018-03-28T04:26:16.185Z,21.80
2018-03-28T04:28:44.654Z,22.87
2018-03-28T04:31:13.150Z,22.83
2018-03-28T04:33:41.651Z,22.87
2018-03-28T04:36:10.126Z,22.67
2018-03-28T04:38:38.633Z,23.70
2018-03-28T04:41:07.140Z,21.93
2018-03-28T04:43:35.647Z,24.00
2018-03-28T04:46:04.110Z,22.83
2018-03-28T04:48:32.665Z,24.57
2018-03-28T04:51:01.175Z,24.57
2018-03-28T04:53:29.631Z,25.20
2018-03-28T04:55:58.090Z,24.73
2018-03-28T04:58:26.614Z,24.27
2018-03-28T05:00:55.105Z,23.80
2018-03-28T05:03:23.602Z,23.60
2018-03-28T05:05:52.118Z,24.07
2018-03-28T05:08:20.594Z,23.17
2018-03-28T05:10:49.074Z,24.77
2018-03-28T05:13:17.614Z,22.50
2018-03-28T05:15:46.132Z,23.27
2018-03-28T05:18:14.632Z,24.43
2018-03-28T05:20:43.198Z,25.83
2018-03-28T05:23:11.665Z,24.13
2018-03-28T05:25:40.297Z,21.50
2018-03-28T05:28:09.050Z,22.23
2018-03-28T05:30:37.521Z,21.70
2018-03-28T05:33:05.999Z,21.90
2018-03-28T05:35:34.499Z,22.13
2018-03-28T05:38:02.960Z,23.67
2018-03-28T05:40:31.478Z,27.50
2018-03-28T05:42:59.979Z,26.80
2018-03-28T05:45:28.469Z,25.53
2018-03-28T05:47:56.975Z,26.70
2018-03-28T05:50:25.506Z,25.50
2018-03-28T05:52:54.002Z,25.30
2018-03-28T05:55:22.536Z,28.10
2018-03-28T05:57:51.054Z,24.73
2018-03-28T06:00:19.511Z,24.20
2018-03-28T06:02:48.010Z,24.33
2018-03-28T06:05:16.496Z,25.70
2018-03-28T06:07:44.994Z,26.27
2018-03-28T06:10:13.460Z,28.27
2018-03-28T06:12:41.958Z,31.37
2018-03-28T06:15:10.470Z,25.60
2018-03-28T06:17:38.940Z,26.67
2018-03-28T06:20:07.455Z,26.97
2018-03-28T06:22:35.993Z,27.97
2018-03-28T06:25:04.491Z,27.13
2018-03-28T06:27:32.998Z,26.27
2018-03-28T06:30:01.502Z,25.90
2018-03-28T06:32:30.018Z,31.77
2018-03-28T06:34:58.478Z,28.07
2018-03-28T06:37:26.962Z,28.90
2018-03-28T06:39:55.543Z,28.23
2018-03-28T06:42:24.002Z,27.90
2018-03-28T06:44:52.511Z,27.20
2018-03-28T06:47:21.057Z,28.23
2018-03-28T06:49:49.531Z,27.73
2018-03-28T06:52:18.064Z,27.60
2018-03-28T06:54:46.548Z,38.17
2018-03-28T06:57:15.005Z,31.27
2018-03-28T06:59:43.568Z,41.90
2018-03-28T07:02:12.008Z,29.10
2018-03-28T07:04:41.289Z,29.40
2018-03-28T07:07:09.776Z,28.30
2018-03-28T07:09:38.277Z,28.70
2018-03-28T07:12:06.785Z,27.90
2018-03-28T07:14:35.243Z,22.70
2018-03-28T07:17:03.755Z,19.90
2018-03-28T07:19:32.226Z,18.70
2018-03-28T07:22:01.085Z,20.13
2018-03-28T07:24:29.698Z,20.23
2018-03-28T07:26:58.205Z,18.60
2018-03-28T07:29:26.670Z,22.23
2018-03-28T07:31:55.178Z,20.03
2018-03-28T07:34:23.665Z,20.17
2018-03-28T07:36:52.149Z,19.57
2018-03-28T07:39:20.666Z,20.13
2018-03-28T07:41:49.132Z,18.33
2018-03-28T07:44:17.609Z,17.73
2018-03-28T07:46:46.105Z,20.07
2018-03-28T07:49:14.623Z,19.53
2018-03-28T07:51:43.134Z,21.60
2018-03-28T07:54:11.606Z,21.37
2018-03-28T07:56:40.115Z,21.70
2018-03-28T07:59:08.581Z,38.47
2018-03-28T08:01:37.087Z,21.00
2018-03-28T08:04:05.586Z,18.57
2018-03-28T08:06:34.054Z,16.50
2018-03-28T08:09:02.555Z,18.30
2018-03-28T08:11:31.055Z,21.37
2018-03-28T08:13:59.578Z,22.77
2018-03-28T08:16:28.038Z,20.47
2018-03-28T08:18:56.538Z,21.40
2018-03-28T08:21:25.074Z,18.40
2018-03-28T08:23:53.530Z,20.67
2018-03-28T08:26:22.006Z,18.70
2018-03-28T08:28:50.514Z,20.30
2018-03-28T08:31:19.021Z,19.73
2018-03-28T08:33:47.542Z,20.57
2018-03-28T08:36:16.083Z,22.40
2018-03-28T08:38:44.542Z,22.00
2018-03-28T08:41:13.059Z,21.73
2018-03-28T08:43:41.522Z,28.83
2018-03-28T08:46:10.031Z,20.67
2018-03-28T08:48:38.564Z,21.20
2018-03-28T08:51:07.054Z,20.23
2018-03-28T08:53:35.575Z,24.83
2018-03-28T08:56:04.068Z,24.10
2018-03-28T08:58:32.547Z,22.33
2018-03-28T09:01:01.042Z,20.43
2018-03-28T09:03:29.540Z,21.97
2018-03-28T09:05:58.076Z,23.50
2018-03-28T09:08:26.588Z,23.93
2018-03-28T09:10:55.104Z,23.00
2018-03-28T09:13:26.160Z,22.00
2018-03-28T09:15:56.792Z,21.73
2018-03-28T09:18:26.080Z,21.57
2018-03-28T09:20:54.917Z,20.07
2018-03-28T09:23:23.493Z,19.37
2018-03-28T09:25:51.957Z,18.87
2018-03-28T09:28:20.457Z,17.93
2018-03-28T09:30:48.957Z,18.50
2018-03-28T09:33:17.427Z,18.97
2018-03-28T09:35:45.943Z,18.17
2018-03-28T09:38:14.447Z,17.73
2018-03-28T09:40:42.954Z,18.93
2018-03-28T09:43:11.440Z,17.57
2018-03-28T09:45:39.964Z,17.07
2018-03-28T09:48:08.439Z,17.57
2018-03-28T09:50:36.949Z,16.27
2018-03-28T09:53:05.470Z,16.43
2018-03-28T09:55:33.943Z,16.77
2018-03-28T09:58:02.453Z,17.67
2018-03-28T10:00:30.943Z,19.90
2018-03-28T10:03:04.837Z,18.50
2018-03-28T10:05:39.167Z,18.13
2018-03-28T10:08:07.677Z,17.37
2018-03-28T10:10:36.429Z,16.53
2018-03-28T10:13:04.902Z,18.60
2018-03-28T10:15:33.413Z,17.33
2018-03-28T10:18:01.890Z,17.40
2018-03-28T10:20:30.406Z,19.30
2018-03-28T10:22:58.868Z,15.90
2018-03-28T10:25:27.382Z,17.03
2018-03-28T10:27:55.850Z,17.67
2018-03-28T10:30:24.342Z,17.50
2018-03-28T10:32:52.868Z,17.60
2018-03-28T10:35:21.370Z,17.70
2018-03-28T10:37:50.160Z,17.73
2018-03-28T10:40:19.662Z,21.30
2018-03-28T10:42:48.163Z,17.33
2018-03-28T10:45:16.686Z,17.60
2018-03-28T10:47:45.190Z,15.00
2018-03-28T10:50:13.740Z,18.43
2018-03-28T10:52:42.334Z,13.47
2018-03-28T10:55:10.802Z,12.73
2018-03-28T10:57:39.314Z,11.80
2018-03-28T11:00:07.858Z,14.13
2018-03-28T11:02:36.370Z,12.97
2018-03-28T11:05:04.838Z,14.03
2018-03-28T11:07:33.245Z,16.93
2018-03-28T11:10:01.645Z,12.80
2018-03-28T11:12:30.095Z,12.80
2018-03-28T11:14:58.570Z,15.37
2018-03-28T11:17:27.069Z,13.33
2018-03-28T11:19:55.478Z,14.43
2018-03-28T11:22:23.912Z,13.10
2018-03-28T11:24:52.361Z,14.30
2018-03-28T11:27:20.805Z,13.47
2018-03-28T11:29:49.298Z,13.40
2018-03-28T11:32:17.734Z,12.20
2018-03-28T11:34:46.163Z,14.20
2018-03-28T11:37:14.671Z,13.17
2018-03-28T11:39:43.133Z,14.00
2018-03-28T11:42:12.045Z,13.30
2018-03-28T11:44:40.702Z,18.80
2018-03-28T11:47:09.199Z,18.83
2018-03-28T11:49:37.718Z,19.50
2018-03-28T11:52:06.199Z,22.30
2018-03-28T11:54:34.678Z,18.90
2018-03-28T11:57:03.201Z,26.03
2018-03-28T11:59:31.713Z,24.77
2018-03-28T12:02:00.250Z,24.20
2018-03-28T12:04:28.769Z,24.70
2018-03-28T12:06:57.274Z,24.00
2018-03-28T12:09:25.774Z,25.97
2018-03-28T12:11:54.289Z,24.90
2018-03-28T12:14:22.818Z,25.80
2018-03-28T12:16:51.282Z,25.20
2018-03-28T12:19:19.845Z,24.07
2018-03-28T12:21:48.365Z,23.40
2018-03-28T12:24:16.903Z,25.03
2018-03-28T12:26:45.417Z,23.93
2018-03-28T12:29:13.913Z,23.63
2018-03-28T12:31:42.390Z,22.53
2018-03-28T12:34:10.912Z,22.87
2018-03-28T12:36:39.378Z,24.23
2018-03-28T12:39:07.941Z,23.47
2018-03-28T12:41:36.442Z,24.37
2018-03-28T12:44:04.964Z,23.30
2018-03-28T12:46:33.443Z,22.07
2018-03-28T12:49:01.950Z,22.60
2018-03-28T12:51:30.444Z,22.27
2018-03-28T12:53:59.009Z,22.40
2018-03-28T12:56:27.528Z,20.90
2018-03-28T12:58:56.125Z,20.93
2018-03-28T13:01:25.242Z,21.43
2018-03-28T13:03:53.756Z,23.63
2018-03-28T13:06:22.266Z,23.07
2018-03-28T13:08:50.815Z,30.60
2018-03-28T13:11:19.301Z,23.67
2018-03-28T13:13:47.824Z,22.57
2018-03-28T13:16:16.339Z,21.10
2018-03-28T13:18:44.870Z,21.23
2018-03-28T13:21:13.438Z,20.83
2018-03-28T13:23:41.946Z,22.50
2018-03-28T13:26:10.423Z,25.17
2018-03-28T13:28:38.922Z,24.77
2018-03-28T13:31:07.386Z,23.37
2018-03-28T13:33:35.912Z,25.17
2018-03-28T13:36:04.437Z,24.13
2018-03-28T13:38:32.946Z,24.03
2018-03-28T13:41:01.446Z,25.13
2018-03-28T13:43:29.921Z,24.67
2018-03-28T13:45:58.414Z,23.37
2018-03-28T13:48:26.927Z,20.63
2018-03-28T13:50:55.452Z,20.97
2018-03-28T13:53:23.919Z,21.20
2018-03-28T13:55:52.458Z,22.60
2018-03-28T13:58:20.930Z,22.73
2018-03-28T14:00:49.398Z,21.50
2018-03-28T14:03:17.962Z,22.97
2018-03-28T14:05:46.485Z,22.20
2018-03-28T14:08:15.058Z,22.53
2018-03-28T14:10:43.593Z,23.83
2018-03-28T14:13:12.098Z,24.57
2018-03-28T14:15:40.626Z,23.63
2018-03-28T14:18:09.094Z,22.20
2018-03-28T14:20:37.569Z,23.80
2018-03-28T14:23:06.078Z,22.80
2018-03-28T14:25:34.550Z,24.07
2018-03-28T14:28:03.234Z,22.77
2018-03-28T14:30:31.726Z,23.17
2018-03-28T14:33:00.257Z,24.30
2018-03-28T14:35:28.760Z,24.03
2018-03-28T14:37:57.226Z,24.20
2018-03-28T14:40:25.774Z,25.47
2018-03-28T14:42:54.586Z,25.67
2018-03-28T14:45:22.807Z,24.47
2018-03-28T14:47:51.270Z,25.30
2018-03-28T14:50:19.773Z,23.50
2018-03-28T14:52:48.270Z,23.13
2018-03-28T14:55:16.735Z,23.17
2018-03-28T14:57:45.249Z,23.20
2018-03-28T15:00:13.714Z,21.87
2018-03-28T15:02:42.226Z,22.07
2018-03-28T15:05:10.710Z,21.63
2018-03-28T15:07:39.247Z,19.60
2018-03-28T15:10:07.722Z,21.43
2018-03-28T15:12:36.226Z,22.67
2018-03-28T15:15:04.721Z,21.40
2018-03-28T15:17:33.218Z,21.20
2018-03-28T15:20:01.735Z,21.93
2018-03-28T15:22:30.202Z,21.87
2018-03-28T15:24:58.665Z,20.73
2018-03-28T15:27:27.182Z,22.50
2018-03-28T15:29:55.647Z,20.50
2018-03-28T15:32:24.128Z,20.23
2018-03-28T15:34:52.630Z,23.80
2018-03-28T15:37:21.129Z,21.87
2018-03-28T15:39:49.644Z,21.30
2018-03-28T15:42:18.110Z,19.90
2018-03-28T15:44:46.610Z,19.50
2018-03-28T15:47:15.096Z,18.73
2018-03-28T15:49:43.599Z,19.87
2018-03-28T15:52:12.098Z,20.63
2018-03-28T15:54:40.602Z,23.97
2018-03-28T15:57:09.099Z,24.27
2018-03-28T15:59:37.603Z,22.97
2018-03-28T16:02:06.062Z,21.67
2018-03-28T16:04:34.582Z,21.70
2018-03-28T16:07:03.090Z,20.10
2018-03-28T16:09:31.556Z,20.43
2018-03-28T16:12:00.076Z,19.47
2018-03-28T16:14:28.537Z,23.70
2018-03-28T16:16:57.042Z,20.03
2018-03-28T16:19:25.547Z,20.00
2018-03-28T16:21:54.041Z,17.53
2018-03-28T16:24:22.508Z,18.80
2018-03-28T16:26:51.010Z,17.40
2018-03-28T16:29:19.498Z,17.77
2018-03-28T16:31:48.028Z,17.40
2018-03-28T16:34:16.534Z,16.77
2018-03-28T16:36:45.043Z,17.10
2018-03-28T16:39:13.574Z,17.23
2018-03-28T16:41:42.096Z,16.10
2018-03-28T16:44:10.591Z,16.83
2018-03-28T16:46:39.089Z,17.40
2018-03-28T16:49:07.614Z,18.07
2018-03-28T16:51:36.077Z,18.67
2018-03-28T16:54:04.586Z,17.50
2018-03-28T16:56:33.265Z,16.47
2018-03-28T16:59:01.790Z,15.63
2018-03-28T17:01:30.302Z,16.97
2018-03-28T17:03:58.773Z,16.70
2018-03-28T17:06:27.278Z,18.30
2018-03-28T17:08:55.753Z,19.70
2018-03-28T17:11:24.213Z,21.17
2018-03-28T17:13:52.716Z,23.47
2018-03-28T17:16:21.206Z,26.00
2018-03-28T17:18:49.746Z,24.60
2018-03-28T17:21:18.237Z,23.70
2018-03-28T17:23:46.699Z,21.40
2018-03-28T17:26:15.190Z,19.03
2018-03-28T17:28:43.714Z,20.07
2018-03-28T17:31:12.166Z,17.90
2018-03-28T17:33:40.628Z,17.73
2018-03-28T17:36:09.117Z,16.30
2018-03-28T17:38:37.592Z,14.50
2018-03-28T17:41:06.094Z,15.27
2018-03-28T17:43:34.578Z,20.50
2018-03-28T17:46:03.090Z,20.33
2018-03-28T17:48:31.555Z,19.13
2018-03-28T17:51:00.023Z,15.27
2018-03-28T17:53:28.530Z,17.43
2018-03-28T17:55:56.995Z,18.97
2018-03-28T17:58:25.497Z,19.63
2018-03-28T18:00:53.962Z,18.40
2018-03-28T18:03:22.461Z,15.97
2018-03-28T18:05:51.067Z,15.53
2018-03-28T18:08:19.562Z,15.03
2018-03-28T18:10:48.018Z,14.67
2018-03-28T18:13:16.551Z,15.03
2018-03-28T18:15:45.042Z,14.80
2018-03-28T18:18:13.534Z,16.13
2018-03-28T18:20:41.991Z,16.07
2018-03-28T18:23:10.490Z,31.27
2018-03-28T18:25:38.958Z,60.00
2018-03-28T18:28:07.455Z,72.93
2018-03-28T18:30:35.965Z,36.80
2018-03-28T18:33:04.448Z,20.23
2018-03-28T18:35:32.950Z,31.50
2018-03-28T18:38:01.410Z,148.97
2018-03-28T18:40:29.996Z,109.47
2018-03-28T18:42:58.465Z,94.97
2018-03-28T18:45:26.969Z,74.17
2018-03-28T18:47:55.438Z,80.07
2018-03-28T18:50:23.900Z,61.73
2018-03-28T18:52:52.485Z,71.80
2018-03-28T18:55:20.968Z,61.13
2018-03-28T18:57:49.470Z,45.80
2018-03-28T19:00:17.961Z,29.13
2018-03-28T19:02:46.425Z,22.47
2018-03-28T19:05:14.930Z,20.90
2018-03-28T19:07:43.398Z,21.33
2018-03-28T19:10:11.886Z,20.50
2018-03-28T19:12:40.344Z,20.70
2018-03-28T19:15:08.832Z,26.97
2018-03-28T19:17:37.321Z,30.13
2018-03-28T19:20:05.782Z,33.27
2018-03-28T19:22:34.297Z,26.50
2018-03-28T19:25:02.770Z,26.47
2018-03-28T19:27:31.324Z,24.60
2018-03-28T19:29:59.794Z,25.77
2018-03-28T19:32:28.254Z,20.87
2018-03-28T19:34:56.800Z,20.70
2018-03-28T19:37:25.249Z,22.37
2018-03-28T19:39:53.741Z,21.67
2018-03-28T19:42:22.206Z,24.60
2018-03-28T19:44:50.702Z,23.67
2018-03-28T19:47:19.159Z,25.57
2018-03-28T19:49:47.624Z,25.63
2018-03-28T19:52:16.146Z,25.07
2018-03-28T19:54:44.669Z,36.33
2018-03-28T19:57:13.126Z,26.27
2018-03-28T19:59:41.643Z,25.63
2018-03-28T20:02:10.138Z,26.77
2018-03-28T20:04:38.597Z,25.83
2018-03-28T20:07:07.095Z,26.63
2018-03-28T20:09:35.589Z,23.97
2018-03-28T20:12:04.084Z,26.60
2018-03-28T20:14:32.608Z,27.63
2018-03-28T20:17:01.062Z,31.97
2018-03-28T20:19:29.546Z,33.50
2018-03-28T20:21:58.059Z,34.53
2018-03-28T20:24:26.526Z,35.90
2018-03-28T20:26:55.027Z,38.73
2018-03-28T20:29:23.478Z,37.67
2018-03-28T20:31:51.986Z,36.80
2018-03-28T20:34:20.440Z,35.83
2018-03-28T20:36:48.897Z,35.57
2018-03-28T20:39:17.387Z,39.87
2018-03-28T20:41:45.891Z,39.13
2018-03-28T20:44:14.386Z,39.47
2018-03-28T20:46:42.858Z,39.67
2018-03-28T20:49:11.351Z,41.17
2018-03-28T20:51:39.886Z,44.40
2018-03-28T20:54:08.347Z,44.50
2018-03-28T20:56:36.847Z,46.00
2018-03-28T20:59:05.353Z,44.93
2018-03-28T21:01:33.812Z,43.67
2018-03-28T21:04:02.291Z,42.20
2018-03-28T21:06:30.806Z,42.80
2018-03-28T21:08:59.262Z,43.43
2018-03-28T21:11:27.776Z,43.50
2018-03-28T21:13:56.306Z,44.00
2018-03-28T21:16:24.851Z,41.77
2018-03-28T21:18:53.309Z,44.30
2018-03-28T21:21:21.764Z,44.10
2018-03-28T21:23:50.254Z,44.37
2018-03-28T21:26:18.755Z,50.37
2018-03-28T21:28:47.266Z,49.47
2018-03-28T21:31:15.738Z,48.77
2018-03-28T21:33:44.230Z,49.00
2018-03-28T21:36:12.738Z,47.20
2018-03-28T21:38:41.218Z,47.70
2018-03-28T21:41:09.746Z,48.73
2018-03-28T21:43:38.221Z,46.93
2018-03-28T21:46:06.686Z,46.57
2018-03-28T21:48:35.178Z,46.33
2018-03-28T21:51:03.670Z,47.07
2018-03-28T21:53:32.158Z,49.73
2018-03-28T21:56:00.657Z,44.23
2018-03-28T21:58:29.162Z,40.67
2018-03-28T22:00:57.673Z,40.10
2018-03-28T22:03:26.131Z,39.17
2018-03-28T22:05:54.622Z,41.40
2018-03-28T22:08:23.749Z,45.67
2018-03-28T22:10:52.246Z,44.80
2018-03-28T22:13:20.742Z,44.17
2018-03-28T22:15:49.228Z,44.40
2018-03-28T22:18:17.718Z,43.97
2018-03-28T22:20:46.178Z,46.90
2018-03-28T22:23:14.680Z,43.40
2018-03-28T22:25:43.207Z,43.80
2018-03-28T22:28:11.696Z,46.17
2018-03-28T22:30:40.154Z,45.63
2018-03-28T22:33:08.649Z,44.90
2018-03-28T22:35:37.204Z,47.20
2018-03-28T22:38:06.582Z,47.47
2018-03-28T22:40:35.037Z,48.20
2018-03-28T22:43:03.552Z,47.07
2018-03-28T22:45:32.028Z,48.13
2018-03-28T22:48:00.493Z,48.40
2018-03-28T22:50:29.014Z,49.47
2018-03-28T22:52:57.518Z,52.63
2018-03-28T22:55:25.991Z,51.60
2018-03-28T22:57:54.446Z,53.27
2018-03-28T23:00:22.938Z,53.40
2018-03-28T23:02:51.424Z,53.53
2018-03-28T23:05:19.922Z,53.43
2018-03-28T23:07:48.375Z,52.00
2018-03-28T23:10:16.833Z,55.97
2018-03-28T23:12:45.329Z,57.53
2018-03-28T23:15:13.818Z,59.63
2018-03-28T23:17:42.321Z,60.10
2018-03-28T23:20:10.831Z,52.47
2018-03-28T23:22:39.334Z,54.50
2018-03-28T23:25:07.850Z,53.53
2018-03-28T23:27:36.315Z,56.53
2018-03-28T23:30:04.850Z,50.43
2018-03-28T23:32:33.330Z,51.40
2018-03-28T23:35:01.822Z,51.87
2018-03-28T23:37:30.297Z,50.97
2018-03-28T23:39:58.815Z,52.77
2018-03-28T23:42:27.274Z,49.83
2018-03-28T23:44:55.770Z,50.43
2018-03-28T23:47:24.282Z,57.50
2018-03-28T23:49:52.733Z,52.20
2018-03-28T23:52:21.240Z,52.27
2018-03-28T23:54:49.704Z,55.60
2018-03-28T23:57:18.202Z,53.67
2018-03-28T23:59:46.693Z,53.97
